sensor_id;sensor_type;location;lat;lon;timestamp;pressure;altitude;pressure_sealevel;temperature;humidity
24160;BME280;62385;41.594;23.808;2023-07-02T00:01:11;94905.75;;;20.15;78.32
24160;BME280;62385;41.594;23.808;2023-07-02T00:03:38;94892.94;;;20.22;77.13
24160;BME280;62385;41.594;23.808;2023-07-02T00:06:04;94894.56;;;20.07;77.62
24160;BME280;62385;41.594;23.808;2023-07-02T00:08:30;94887.28;;;20.07;78.14
24160;BME280;62385;41.594;23.808;2023-07-02T00:10:56;94887.03;;;20.25;76.72
24160;BME280;62385;41.594;23.808;2023-07-02T00:13:22;94897.66;;;20.15;77.75
24160;BME280;62385;41.594;23.808;2023-07-02T00:15:48;94888.34;;;20.06;76.81
24160;BME280;62385;41.594;23.808;2023-07-02T00:18:13;94889.69;;;20.20;76.55
24160;BME280;62385;41.594;23.808;2023-07-02T00:20:43;94897.34;;;20.12;76.53
24160;BME280;62385;41.594;23.808;2023-07-02T00:23:09;94902.41;;;20.08;78.05
24160;BME280;62385;41.594;23.808;2023-07-02T00:25:36;94890.84;;;19.51;79.98
24160;BME280;62385;41.594;23.808;2023-07-02T00:28:02;94890.13;;;19.56;80.58
24160;BME280;62385;41.594;23.808;2023-07-02T00:30:28;94875.31;;;19.42;80.50
24160;BME280;62385;41.594;23.808;2023-07-02T00:32:55;94875.59;;;19.28;80.97
24160;BME280;62385;41.594;23.808;2023-07-02T00:35:21;94889.22;;;19.78;79.74
24160;BME280;62385;41.594;23.808;2023-07-02T00:37:49;94874.38;;;20.09;77.88
24160;BME280;62385;41.594;23.808;2023-07-02T00:40:14;94878.38;;;20.07;78.87
24160;BME280;62385;41.594;23.808;2023-07-02T00:42:40;94853.22;;;20.01;78.81
24160;BME280;62385;41.594;23.808;2023-07-02T00:45:06;94863.03;;;19.91;79.64
24160;BME280;62385;41.594;23.808;2023-07-02T00:47:33;94852.84;;;19.64;79.77
24160;BME280;62385;41.594;23.808;2023-07-02T00:50:00;94855.69;;;19.86;78.98
24160;BME280;62385;41.594;23.808;2023-07-02T00:52:26;94873.25;;;20.22;78.83
24160;BME280;62385;41.594;23.808;2023-07-02T00:54:52;94865.81;;;20.12;79.32
24160;BME280;62385;41.594;23.808;2023-07-02T00:57:20;94871.22;;;20.12;79.16
24160;BME280;62385;41.594;23.808;2023-07-02T00:59:46;94859.75;;;20.22;79.54
24160;BME280;62385;41.594;23.808;2023-07-02T01:02:12;94854.53;;;20.15;80.05
24160;BME280;62385;41.594;23.808;2023-07-02T01:04:39;94854.88;;;20.02;79.78
24160;BME280;62385;41.594;23.808;2023-07-02T01:07:05;94865.00;;;19.95;79.27
24160;BME280;62385;41.594;23.808;2023-07-02T01:09:36;94856.50;;;20.03;79.26
24160;BME280;62385;41.594;23.808;2023-07-02T01:12:07;94860.56;;;20.06;80.07
24160;BME280;62385;41.594;23.808;2023-07-02T01:14:44;94854.69;;;20.09;79.83
24160;BME280;62385;41.594;23.808;2023-07-02T01:17:13;94855.59;;;20.14;78.97
24160;BME280;62385;41.594;23.808;2023-07-02T01:19:55;94851.69;;;20.05;79.42
24160;BME280;62385;41.594;23.808;2023-07-02T01:22:27;94851.44;;;20.07;79.70
24160;BME280;62385;41.594;23.808;2023-07-02T01:24:54;94848.16;;;20.05;79.40
24160;BME280;62385;41.594;23.808;2023-07-02T01:27:20;94851.59;;;20.00;79.74
24160;BME280;62385;41.594;23.808;2023-07-02T01:29:46;94843.84;;;19.87;80.04
24160;BME280;62385;41.594;23.808;2023-07-02T01:32:13;94848.50;;;19.75;80.55
24160;BME280;62385;41.594;23.808;2023-07-02T01:34:39;94843.16;;;19.80;80.67
24160;BME280;62385;41.594;23.808;2023-07-02T01:37:08;94846.03;;;19.73;80.30
24160;BME280;62385;41.594;23.808;2023-07-02T01:39:35;94844.06;;;19.69;80.66
24160;BME280;62385;41.594;23.808;2023-07-02T01:42:13;94839.66;;;19.63;80.24
24160;BME280;62385;41.594;23.808;2023-07-02T01:44:41;94837.16;;;19.45;80.47
24160;BME280;62385;41.594;23.808;2023-07-02T01:47:06;94838.50;;;19.75;79.77
24160;BME280;62385;41.594;23.808;2023-07-02T01:49:32;94855.03;;;19.79;79.77
24160;BME280;62385;41.594;23.808;2023-07-02T01:51:58;94835.72;;;19.54;79.34
24160;BME280;62385;41.594;23.808;2023-07-02T01:54:25;94841.22;;;19.47;79.74
24160;BME280;62385;41.594;23.808;2023-07-02T01:56:57;94839.13;;;19.49;79.67
24160;BME280;62385;41.594;23.808;2023-07-02T01:59:23;94851.31;;;19.40;79.41
24160;BME280;62385;41.594;23.808;2023-07-02T02:01:49;94853.66;;;19.48;78.95
24160;BME280;62385;41.594;23.808;2023-07-02T02:04:16;94851.94;;;19.87;77.85
24160;BME280;62385;41.594;23.808;2023-07-02T02:06:41;94844.56;;;19.83;77.60
24160;BME280;62385;41.594;23.808;2023-07-02T02:09:08;94852.88;;;19.81;77.66
24160;BME280;62385;41.594;23.808;2023-07-02T02:11:42;94852.59;;;19.49;79.41
24160;BME280;62385;41.594;23.808;2023-07-02T02:14:08;94844.06;;;19.69;80.13
24160;BME280;62385;41.594;23.808;2023-07-02T02:16:33;94845.09;;;19.68;80.74
24160;BME280;62385;41.594;23.808;2023-07-02T02:18:59;94850.50;;;19.68;81.41
24160;BME280;62385;41.594;23.808;2023-07-02T02:21:25;94846.00;;;19.57;81.85
24160;BME280;62385;41.594;23.808;2023-07-02T02:23:51;94838.91;;;19.67;82.21
24160;BME280;62385;41.594;23.808;2023-07-02T02:26:16;94846.81;;;19.57;82.71
24160;BME280;62385;41.594;23.808;2023-07-02T02:28:42;94839.22;;;19.54;82.94
24160;BME280;62385;41.594;23.808;2023-07-02T02:31:08;94840.31;;;19.70;82.56
24160;BME280;62385;41.594;23.808;2023-07-02T02:33:35;94828.88;;;19.63;82.48
24160;BME280;62385;41.594;23.808;2023-07-02T02:36:02;94829.53;;;19.70;82.58
24160;BME280;62385;41.594;23.808;2023-07-02T02:38:28;94825.41;;;19.79;81.12
24160;BME280;62385;41.594;23.808;2023-07-02T02:40:54;94829.03;;;19.73;81.24
24160;BME280;62385;41.594;23.808;2023-07-02T02:43:20;94826.13;;;19.74;80.94
24160;BME280;62385;41.594;23.808;2023-07-02T02:45:47;94828.63;;;19.64;82.10
24160;BME280;62385;41.594;23.808;2023-07-02T02:48:12;94828.50;;;19.71;81.09
24160;BME280;62385;41.594;23.808;2023-07-02T02:50:38;94827.66;;;19.70;80.91
24160;BME280;62385;41.594;23.808;2023-07-02T02:53:07;94835.00;;;19.58;80.30
24160;BME280;62385;41.594;23.808;2023-07-02T02:55:33;94847.47;;;19.36;81.12
24160;BME280;62385;41.594;23.808;2023-07-02T02:58:17;94856.34;;;19.36;81.44
24160;BME280;62385;41.594;23.808;2023-07-02T03:00:43;94858.16;;;19.59;80.90
24160;BME280;62385;41.594;23.808;2023-07-02T03:03:12;94870.78;;;19.59;80.17
24160;BME280;62385;41.594;23.808;2023-07-02T03:05:37;94878.81;;;19.02;82.79
24160;BME280;62385;41.594;23.808;2023-07-02T03:08:03;94882.00;;;19.27;80.44
24160;BME280;62385;41.594;23.808;2023-07-02T03:10:29;94889.38;;;19.32;78.95
24160;BME280;62385;41.594;23.808;2023-07-02T03:12:54;94894.94;;;19.54;78.06
24160;BME280;62385;41.594;23.808;2023-07-02T03:15:20;94888.66;;;19.36;78.45
24160;BME280;62385;41.594;23.808;2023-07-02T03:17:46;94886.78;;;19.49;77.34
24160;BME280;62385;41.594;23.808;2023-07-02T03:20:12;94885.34;;;19.58;78.68
24160;BME280;62385;41.594;23.808;2023-07-02T03:22:38;94876.19;;;19.19;80.49
24160;BME280;62385;41.594;23.808;2023-07-02T03:25:05;94870.88;;;18.96;81.27
24160;BME280;62385;41.594;23.808;2023-07-02T03:27:31;94883.94;;;19.15;80.83
24160;BME280;62385;41.594;23.808;2023-07-02T03:29:56;94880.72;;;19.30;79.80
24160;BME280;62385;41.594;23.808;2023-07-02T03:32:22;94865.34;;;19.54;78.38
24160;BME280;62385;41.594;23.808;2023-07-02T03:34:47;94862.66;;;19.54;78.80
24160;BME280;62385;41.594;23.808;2023-07-02T03:37:13;94864.66;;;19.75;78.67
24160;BME280;62385;41.594;23.808;2023-07-02T03:39:39;94868.25;;;19.97;78.41
24160;BME280;62385;41.594;23.808;2023-07-02T03:42:05;94866.63;;;20.13;78.33
24160;BME280;62385;41.594;23.808;2023-07-02T03:44:31;94860.91;;;20.26;77.33
24160;BME280;62385;41.594;23.808;2023-07-02T03:46:57;94860.47;;;20.29;78.38
24160;BME280;62385;41.594;23.808;2023-07-02T03:49:22;94858.22;;;20.43;77.02
24160;BME280;62385;41.594;23.808;2023-07-02T03:51:48;94854.81;;;20.31;77.89
24160;BME280;62385;41.594;23.808;2023-07-02T03:54:15;94847.84;;;20.51;77.13
24160;BME280;62385;41.594;23.808;2023-07-02T03:56:40;94856.09;;;20.83;76.27
24160;BME280;62385;41.594;23.808;2023-07-02T03:59:06;94866.16;;;21.09;75.62
24160;BME280;62385;41.594;23.808;2023-07-02T04:01:31;94872.25;;;20.78;74.68
24160;BME280;62385;41.594;23.808;2023-07-02T04:03:57;94875.19;;;20.77;75.39
24160;BME280;62385;41.594;23.808;2023-07-02T04:06:22;94891.38;;;20.60;76.81
24160;BME280;62385;41.594;23.808;2023-07-02T04:08:48;94889.25;;;20.79;75.72
24160;BME280;62385;41.594;23.808;2023-07-02T04:11:13;94886.06;;;20.65;75.50
24160;BME280;62385;41.594;23.808;2023-07-02T04:13:39;94892.56;;;20.86;73.90
24160;BME280;62385;41.594;23.808;2023-07-02T04:16:05;94913.16;;;20.53;73.60
24160;BME280;62385;41.594;23.808;2023-07-02T04:18:31;94920.88;;;20.16;75.85
24160;BME280;62385;41.594;23.808;2023-07-02T04:21:00;94925.78;;;19.23;79.82
24160;BME280;62385;41.594;23.808;2023-07-02T04:23:26;94925.50;;;19.76;77.91
24160;BME280;62385;41.594;23.808;2023-07-02T04:25:51;94925.72;;;19.86;77.29
24160;BME280;62385;41.594;23.808;2023-07-02T04:28:17;94925.28;;;20.22;76.33
24160;BME280;62385;41.594;23.808;2023-07-02T04:30:43;94919.56;;;20.19;76.93
24160;BME280;62385;41.594;23.808;2023-07-02T04:33:08;94910.00;;;20.28;77.09
24160;BME280;62385;41.594;23.808;2023-07-02T04:35:34;94904.31;;;20.24;78.33
24160;BME280;62385;41.594;23.808;2023-07-02T04:38:03;94900.50;;;20.37;77.36
24160;BME280;62385;41.594;23.808;2023-07-02T04:40:28;94896.78;;;20.60;75.29
24160;BME280;62385;41.594;23.808;2023-07-02T04:42:54;94903.22;;;20.59;74.98
24160;BME280;62385;41.594;23.808;2023-07-02T04:56:23;94908.78;;;20.19;78.41
24160;BME280;62385;41.594;23.808;2023-07-02T04:59:08;94913.38;;;20.52;75.67
24160;BME280;62385;41.594;23.808;2023-07-02T05:01:33;94913.47;;;20.57;76.06
24160;BME280;62385;41.594;23.808;2023-07-02T05:03:59;94904.81;;;20.38;76.51
24160;BME280;62385;41.594;23.808;2023-07-02T05:06:25;94904.13;;;20.14;77.15
24160;BME280;62385;41.594;23.808;2023-07-02T05:08:50;94897.63;;;20.44;76.49
24160;BME280;62385;41.594;23.808;2023-07-02T05:11:16;94892.44;;;20.59;76.12
24160;BME280;62385;41.594;23.808;2023-07-02T05:13:42;94892.75;;;20.62;75.22
24160;BME280;62385;41.594;23.808;2023-07-02T05:16:07;94896.97;;;20.53;75.44
24160;BME280;62385;41.594;23.808;2023-07-02T05:18:33;94890.66;;;20.48;75.55
24160;BME280;62385;41.594;23.808;2023-07-02T05:21:00;94894.81;;;20.72;75.05
24160;BME280;62385;41.594;23.808;2023-07-02T05:23:25;94891.94;;;20.79;74.98
24160;BME280;62385;41.594;23.808;2023-07-02T05:25:52;94888.94;;;20.97;74.27
24160;BME280;62385;41.594;23.808;2023-07-02T05:28:17;94886.59;;;21.66;72.25
24160;BME280;62385;41.594;23.808;2023-07-02T05:30:44;94891.59;;;22.05;70.36
24160;BME280;62385;41.594;23.808;2023-07-02T05:33:09;94896.72;;;22.02;69.45
24160;BME280;62385;41.594;23.808;2023-07-02T05:35:36;94903.34;;;22.53;68.19
24160;BME280;62385;41.594;23.808;2023-07-02T05:38:01;94904.19;;;22.85;66.79
24160;BME280;62385;41.594;23.808;2023-07-02T05:40:28;94907.72;;;22.22;68.68
24160;BME280;62385;41.594;23.808;2023-07-02T05:42:53;94903.47;;;22.04;68.22
24160;BME280;62385;41.594;23.808;2023-07-02T05:45:19;94887.50;;;22.30;68.08
24160;BME280;62385;41.594;23.808;2023-07-02T05:47:45;94891.41;;;22.44;66.39
24160;BME280;62385;41.594;23.808;2023-07-02T05:50:10;94886.94;;;22.28;67.32
24160;BME280;62385;41.594;23.808;2023-07-02T05:52:36;94893.44;;;22.00;68.69
24160;BME280;62385;41.594;23.808;2023-07-02T05:55:02;94897.09;;;22.16;67.53
24160;BME280;62385;41.594;23.808;2023-07-02T05:57:27;94892.78;;;22.15;66.65
24160;BME280;62385;41.594;23.808;2023-07-02T05:59:53;94896.59;;;22.19;66.83
24160;BME280;62385;41.594;23.808;2023-07-02T06:02:18;94891.06;;;22.35;66.00
24160;BME280;62385;41.594;23.808;2023-07-02T06:04:44;94891.41;;;22.44;65.88
24160;BME280;62385;41.594;23.808;2023-07-02T06:07:09;94893.16;;;22.60;65.02
24160;BME280;62385;41.594;23.808;2023-07-02T06:09:35;94866.03;;;22.55;65.69
24160;BME280;62385;41.594;23.808;2023-07-02T06:12:00;94867.84;;;22.39;66.11
24160;BME280;62385;41.594;23.808;2023-07-02T06:14:44;94872.00;;;22.57;66.45
24160;BME280;62385;41.594;23.808;2023-07-02T06:17:10;94871.50;;;22.60;64.77
24160;BME280;62385;41.594;23.808;2023-07-02T06:19:37;94865.03;;;22.66;65.14
24160;BME280;62385;41.594;23.808;2023-07-02T06:22:03;94862.63;;;23.17;64.10
24160;BME280;62385;41.594;23.808;2023-07-02T06:24:29;94877.81;;;23.18;62.52
24160;BME280;62385;41.594;23.808;2023-07-02T06:26:55;94870.19;;;23.10;62.47
24160;BME280;62385;41.594;23.808;2023-07-02T06:29:22;94862.03;;;23.05;63.00
24160;BME280;62385;41.594;23.808;2023-07-02T06:31:48;94870.81;;;23.32;62.90
24160;BME280;62385;41.594;23.808;2023-07-02T06:34:14;94872.56;;;22.96;63.95
24160;BME280;62385;41.594;23.808;2023-07-02T06:36:40;94867.25;;;23.16;63.17
24160;BME280;62385;41.594;23.808;2023-07-02T06:39:05;94861.19;;;22.94;63.71
24160;BME280;62385;41.594;23.808;2023-07-02T06:41:31;94863.78;;;23.26;62.97
24160;BME280;62385;41.594;23.808;2023-07-02T06:43:56;94857.69;;;23.04;64.20
24160;BME280;62385;41.594;23.808;2023-07-02T06:46:22;94854.97;;;23.61;64.50
24160;BME280;62385;41.594;23.808;2023-07-02T06:48:48;94856.97;;;24.01;63.38
24160;BME280;62385;41.594;23.808;2023-07-02T06:51:13;94853.41;;;23.95;63.19
24160;BME280;62385;41.594;23.808;2023-07-02T06:53:44;94843.88;;;23.77;62.72
24160;BME280;62385;41.594;23.808;2023-07-02T06:56:11;94845.22;;;23.55;64.90
24160;BME280;62385;41.594;23.808;2023-07-02T06:58:37;94845.53;;;23.68;63.86
24160;BME280;62385;41.594;23.808;2023-07-02T07:01:03;94831.72;;;23.95;61.60
24160;BME280;62385;41.594;23.808;2023-07-02T07:03:28;94830.88;;;23.64;63.49
24160;BME280;62385;41.594;23.808;2023-07-02T07:05:54;94842.03;;;23.98;63.03
24160;BME280;62385;41.594;23.808;2023-07-02T07:08:19;94835.50;;;23.84;61.71
24160;BME280;62385;41.594;23.808;2023-07-02T07:10:45;94840.16;;;24.14;61.55
24160;BME280;62385;41.594;23.808;2023-07-02T07:13:11;94836.66;;;24.23;61.43
24160;BME280;62385;41.594;23.808;2023-07-02T07:15:37;94835.47;;;23.69;63.00
24160;BME280;62385;41.594;23.808;2023-07-02T07:18:03;94848.47;;;23.62;64.41
24160;BME280;62385;41.594;23.808;2023-07-02T07:20:32;94846.03;;;23.55;63.82
24160;BME280;62385;41.594;23.808;2023-07-02T07:22:57;94841.22;;;23.87;62.42
24160;BME280;62385;41.594;23.808;2023-07-02T07:25:24;94846.09;;;23.90;62.23
24160;BME280;62385;41.594;23.808;2023-07-02T07:27:49;94848.25;;;23.83;62.10
24160;BME280;62385;41.594;23.808;2023-07-02T07:30:33;94843.94;;;24.03;62.60
24160;BME280;62385;41.594;23.808;2023-07-02T07:32:59;94839.38;;;24.18;61.06
24160;BME280;62385;41.594;23.808;2023-07-02T07:35:24;94851.03;;;24.39;59.96
24160;BME280;62385;41.594;23.808;2023-07-02T07:37:50;94844.72;;;24.99;58.06
24160;BME280;62385;41.594;23.808;2023-07-02T07:40:15;94843.09;;;24.78;58.45
24160;BME280;62385;41.594;23.808;2023-07-02T07:42:41;94838.00;;;24.46;60.69
24160;BME280;62385;41.594;23.808;2023-07-02T07:45:11;94836.91;;;24.52;59.61
24160;BME280;62385;41.594;23.808;2023-07-02T07:47:37;94839.88;;;24.66;59.76
24160;BME280;62385;41.594;23.808;2023-07-02T07:50:03;94844.78;;;24.59;59.51
24160;BME280;62385;41.594;23.808;2023-07-02T07:52:40;94834.69;;;24.90;58.86
24160;BME280;62385;41.594;23.808;2023-07-02T07:55:24;94845.72;;;25.23;56.68
24160;BME280;62385;41.594;23.808;2023-07-02T07:57:50;94841.56;;;25.46;57.11
24160;BME280;62385;41.594;23.808;2023-07-02T08:00:16;94848.59;;;25.57;56.36
24160;BME280;62385;41.594;23.808;2023-07-02T08:02:46;94841.66;;;25.26;56.93
24160;BME280;62385;41.594;23.808;2023-07-02T08:05:15;94841.56;;;25.46;57.54
24160;BME280;62385;41.594;23.808;2023-07-02T08:07:40;94846.84;;;25.17;57.60
24160;BME280;62385;41.594;23.808;2023-07-02T08:10:07;94839.63;;;25.52;56.08
24160;BME280;62385;41.594;23.808;2023-07-02T08:12:34;94838.78;;;25.61;55.58
24160;BME280;62385;41.594;23.808;2023-07-02T08:15:00;94838.69;;;25.77;54.80
24160;BME280;62385;41.594;23.808;2023-07-02T08:17:25;94834.38;;;26.14;54.06
24160;BME280;62385;41.594;23.808;2023-07-02T08:20:11;94825.63;;;26.23;53.48
24160;BME280;62385;41.594;23.808;2023-07-02T08:22:38;94827.31;;;25.69;55.05
24160;BME280;62385;41.594;23.808;2023-07-02T08:25:04;94831.28;;;25.33;53.98
24160;BME280;62385;41.594;23.808;2023-07-02T08:27:30;94823.69;;;25.84;54.31
24160;BME280;62385;41.594;23.808;2023-07-02T08:29:55;94829.47;;;25.72;54.33
24160;BME280;62385;41.594;23.808;2023-07-02T08:32:21;94829.72;;;25.76;52.98
24160;BME280;62385;41.594;23.808;2023-07-02T08:34:47;94826.34;;;25.40;54.53
24160;BME280;62385;41.594;23.808;2023-07-02T08:37:12;94826.69;;;25.88;52.06
24160;BME280;62385;41.594;23.808;2023-07-02T08:39:38;94828.38;;;25.14;53.31
24160;BME280;62385;41.594;23.808;2023-07-02T08:42:05;94828.03;;;25.31;53.16
24160;BME280;62385;41.594;23.808;2023-07-02T08:44:31;94829.91;;;25.41;53.64
24160;BME280;62385;41.594;23.808;2023-07-02T08:46:57;94826.31;;;25.55;53.40
24160;BME280;62385;41.594;23.808;2023-07-02T08:49:22;94836.78;;;25.18;54.06
24160;BME280;62385;41.594;23.808;2023-07-02T08:51:48;94820.03;;;25.60;52.44
24160;BME280;62385;41.594;23.808;2023-07-02T08:54:14;94827.50;;;25.34;53.77
24160;BME280;62385;41.594;23.808;2023-07-02T08:56:40;94831.31;;;25.28;53.76
24160;BME280;62385;41.594;23.808;2023-07-02T08:59:09;94840.88;;;25.10;53.13
24160;BME280;62385;41.594;23.808;2023-07-02T09:01:50;94833.84;;;24.99;52.98
24160;BME280;62385;41.594;23.808;2023-07-02T09:04:18;94830.06;;;24.90;54.83
24160;BME280;62385;41.594;23.808;2023-07-02T09:06:45;94835.75;;;24.99;53.84
24160;BME280;62385;41.594;23.808;2023-07-02T09:09:12;94838.91;;;25.31;54.95
24160;BME280;62385;41.594;23.808;2023-07-02T09:11:47;94835.97;;;25.17;54.98
24160;BME280;62385;41.594;23.808;2023-07-02T09:14:31;94833.06;;;24.83;57.03
24160;BME280;62385;41.594;23.808;2023-07-02T09:17:03;94829.28;;;24.74;56.54
24160;BME280;62385;41.594;23.808;2023-07-02T09:19:31;94824.69;;;24.60;57.47
24160;BME280;62385;41.594;23.808;2023-07-02T09:21:58;94824.91;;;24.94;55.61
24160;BME280;62385;41.594;23.808;2023-07-02T09:24:27;94823.84;;;24.79;56.59
24160;BME280;62385;41.594;23.808;2023-07-02T09:26:59;94827.91;;;24.82;56.62
24160;BME280;62385;41.594;23.808;2023-07-02T09:29:31;94833.03;;;24.94;56.73
24160;BME280;62385;41.594;23.808;2023-07-02T09:32:04;94837.69;;;25.67;53.59
24160;BME280;62385;41.594;23.808;2023-07-02T09:34:34;94840.53;;;25.91;53.56
24160;BME280;62385;41.594;23.808;2023-07-02T09:37:01;94834.19;;;26.01;52.23
24160;BME280;62385;41.594;23.808;2023-07-02T09:39:32;94834.75;;;25.44;51.58
24160;BME280;62385;41.594;23.808;2023-07-02T09:42:00;94837.00;;;25.86;51.36
24160;BME280;62385;41.594;23.808;2023-07-02T09:44:30;94824.31;;;26.10;50.01
24160;BME280;62385;41.594;23.808;2023-07-02T09:47:01;94826.75;;;26.16;50.40
24160;BME280;62385;41.594;23.808;2023-07-02T09:49:53;94830.13;;;25.98;50.51
24160;BME280;62385;41.594;23.808;2023-07-02T09:52:19;94827.53;;;25.78;51.99
24160;BME280;62385;41.594;23.808;2023-07-02T09:54:46;94831.44;;;25.62;53.17
24160;BME280;62385;41.594;23.808;2023-07-02T09:57:14;94829.44;;;25.83;50.79
24160;BME280;62385;41.594;23.808;2023-07-02T09:59:40;94819.25;;;26.37;49.96
24160;BME280;62385;41.594;23.808;2023-07-02T10:02:10;94825.34;;;25.80;50.46
24160;BME280;62385;41.594;23.808;2023-07-02T10:04:44;94826.16;;;26.25;51.67
24160;BME280;62385;41.594;23.808;2023-07-02T10:07:11;94817.41;;;26.61;51.08
24160;BME280;62385;41.594;23.808;2023-07-02T10:09:38;94806.31;;;26.19;51.74
24160;BME280;62385;41.594;23.808;2023-07-02T10:12:24;94804.38;;;26.58;50.43
24160;BME280;62385;41.594;23.808;2023-07-02T10:14:55;94816.66;;;25.78;50.82
24160;BME280;62385;41.594;23.808;2023-07-02T10:17:31;94811.28;;;26.75;50.99
24160;BME280;62385;41.594;23.808;2023-07-02T10:20:00;94803.41;;;26.44;51.98
24160;BME280;62385;41.594;23.808;2023-07-02T10:22:26;94804.25;;;26.40;52.39
24160;BME280;62385;41.594;23.808;2023-07-02T10:24:59;94802.28;;;26.11;52.67
24160;BME280;62385;41.594;23.808;2023-07-02T10:27:40;94794.31;;;26.25;52.51
24160;BME280;62385;41.594;23.808;2023-07-02T10:30:08;94792.94;;;26.56;51.32
24160;BME280;62385;41.594;23.808;2023-07-02T10:32:35;94793.34;;;26.06;52.32
24160;BME280;62385;41.594;23.808;2023-07-02T10:35:14;94793.28;;;26.16;52.45
24160;BME280;62385;41.594;23.808;2023-07-02T10:37:41;94790.94;;;26.04;53.61
24160;BME280;62385;41.594;23.808;2023-07-02T10:40:08;94783.47;;;26.20;53.46
24160;BME280;62385;41.594;23.808;2023-07-02T10:42:51;94780.81;;;26.96;50.73
24160;BME280;62385;41.594;23.808;2023-07-02T10:45:19;94779.09;;;26.77;49.69
24160;BME280;62385;41.594;23.808;2023-07-02T10:47:45;94765.72;;;26.80;51.03
24160;BME280;62385;41.594;23.808;2023-07-02T10:50:18;94770.06;;;26.86;51.61
24160;BME280;62385;41.594;23.808;2023-07-02T10:52:45;94773.38;;;26.54;50.83
24160;BME280;62385;41.594;23.808;2023-07-02T10:55:16;94764.50;;;26.68;51.40
24160;BME280;62385;41.594;23.808;2023-07-02T10:57:44;94767.78;;;26.41;52.96
24160;BME280;62385;41.594;23.808;2023-07-02T11:00:10;94766.84;;;26.50;53.44
24160;BME280;62385;41.594;23.808;2023-07-02T11:02:37;94762.72;;;26.82;52.77
24160;BME280;62385;41.594;23.808;2023-07-02T11:05:05;94746.16;;;27.02;50.64
24160;BME280;62385;41.594;23.808;2023-07-02T11:07:41;94747.44;;;26.86;52.06
24160;BME280;62385;41.594;23.808;2023-07-02T11:10:08;94747.06;;;26.69;51.93
24160;BME280;62385;41.594;23.808;2023-07-02T11:12:34;94739.66;;;26.74;52.93
24160;BME280;62385;41.594;23.808;2023-07-02T11:15:08;94739.94;;;26.96;51.62
24160;BME280;62385;41.594;23.808;2023-07-02T11:17:34;94746.09;;;26.83;52.59
24160;BME280;62385;41.594;23.808;2023-07-02T11:19:59;94735.72;;;27.09;51.46
24160;BME280;62385;41.594;23.808;2023-07-02T11:22:31;94747.22;;;27.48;51.49
24160;BME280;62385;41.594;23.808;2023-07-02T11:25:11;94740.66;;;27.26;52.08
24160;BME280;62385;41.594;23.808;2023-07-02T11:27:38;94747.81;;;27.83;51.14
24160;BME280;62385;41.594;23.808;2023-07-02T11:30:04;94737.72;;;27.22;51.35
24160;BME280;62385;41.594;23.808;2023-07-02T11:32:30;94728.72;;;27.83;50.69
24160;BME280;62385;41.594;23.808;2023-07-02T11:34:55;94725.28;;;27.16;52.46
24160;BME280;62385;41.594;23.808;2023-07-02T11:37:22;94726.97;;;27.31;51.29
24160;BME280;62385;41.594;23.808;2023-07-02T11:39:48;94725.81;;;27.37;51.36
24160;BME280;62385;41.594;23.808;2023-07-02T11:42:15;94723.78;;;28.17;50.59
24160;BME280;62385;41.594;23.808;2023-07-02T11:44:40;94724.13;;;28.89;49.21
24160;BME280;62385;41.594;23.808;2023-07-02T11:47:06;94726.03;;;28.88;50.08
24160;BME280;62385;41.594;23.808;2023-07-02T11:49:32;94728.72;;;28.48;50.04
24160;BME280;62385;41.594;23.808;2023-07-02T11:51:59;94731.50;;;28.29;51.48
24160;BME280;62385;41.594;23.808;2023-07-02T11:54:24;94738.00;;;28.47;51.35
24160;BME280;62385;41.594;23.808;2023-07-02T11:56:50;94740.69;;;28.79;51.14
24160;BME280;62385;41.594;23.808;2023-07-02T11:59:15;94743.31;;;28.24;52.28
24160;BME280;62385;41.594;23.808;2023-07-02T12:01:41;94741.78;;;28.18;52.69
24160;BME280;62385;41.594;23.808;2023-07-02T12:04:09;94741.91;;;27.33;53.72
24160;BME280;62385;41.594;23.808;2023-07-02T12:06:37;94751.88;;;26.77;53.61
24160;BME280;62385;41.594;23.808;2023-07-02T12:09:02;94754.78;;;26.33;53.94
24160;BME280;62385;41.594;23.808;2023-07-02T12:11:28;94759.25;;;26.47;54.79
24160;BME280;62385;41.594;23.808;2023-07-02T12:13:53;94753.09;;;26.66;53.40
24160;BME280;62385;41.594;23.808;2023-07-02T12:16:19;94753.34;;;26.93;52.21
24160;BME280;62385;41.594;23.808;2023-07-02T12:18:45;94754.41;;;26.44;52.56
24160;BME280;62385;41.594;23.808;2023-07-02T12:21:10;94741.78;;;25.91;53.73
24160;BME280;62385;41.594;23.808;2023-07-02T12:23:37;94735.81;;;26.23;53.69
24160;BME280;62385;41.594;23.808;2023-07-02T12:26:21;94731.34;;;26.60;54.11
24160;BME280;62385;41.594;23.808;2023-07-02T12:28:48;94733.44;;;26.69;53.61
24160;BME280;62385;41.594;23.808;2023-07-02T12:31:13;94719.97;;;26.30;54.19
24160;BME280;62385;41.594;23.808;2023-07-02T12:33:39;94723.31;;;26.22;55.08
24160;BME280;62385;41.594;23.808;2023-07-02T12:36:05;94719.56;;;26.70;54.31
24160;BME280;62385;41.594;23.808;2023-07-02T12:38:30;94720.44;;;26.37;55.13
24160;BME280;62385;41.594;23.808;2023-07-02T12:40:56;94707.47;;;26.29;55.75
24160;BME280;62385;41.594;23.808;2023-07-02T12:43:23;94708.81;;;26.79;54.73
24160;BME280;62385;41.594;23.808;2023-07-02T12:45:49;94712.59;;;27.25;53.96
24160;BME280;62385;41.594;23.808;2023-07-02T12:48:16;94714.50;;;26.58;55.89
24160;BME280;62385;41.594;23.808;2023-07-02T12:50:41;94709.41;;;26.52;55.82
24160;BME280;62385;41.594;23.808;2023-07-02T12:53:27;94704.00;;;26.47;56.64
24160;BME280;62385;41.594;23.808;2023-07-02T12:55:53;94708.22;;;26.34;58.40
24160;BME280;62385;41.594;23.808;2023-07-02T12:58:19;94712.53;;;26.64;57.91
24160;BME280;62385;41.594;23.808;2023-07-02T13:00:45;94706.53;;;27.09;56.00
24160;BME280;62385;41.594;23.808;2023-07-02T13:03:12;94705.59;;;27.38;54.51